Time;durP1;ratioP1;P1;durP2;ratioP2;P2;SDS_P1;SDS_P2;PMS_P1;PMS_P2;Temp;Humidity;BMP_temperature;BMP_pressure;BME280_temperature;BME280_humidity;BME280_pressure;Samples;Min_cycle;Max_cycle;Signal;HPM_P1;HPM_P2
2022/01/13 00:00:07;;;;;;;78.40;28.77;;;-0.70;99.90;;;;;;5075406;28;20200;-68
2022/01/13 00:02:36;;;;;;;75.97;28.80;;;-0.70;99.90;;;;;;5074115;28;20145;-67
2022/01/13 00:05:05;;;;;;;78.33;28.13;;;-0.70;99.90;;;;;;5074778;28;20248;-67
2022/01/13 00:07:34;;;;;;;76.37;27.17;;;-0.70;99.90;;;;;;5074695;28;20145;-67
2022/01/13 00:10:01;;;;;;;69.37;26.17;;;-0.70;99.90;;;;;;5075744;28;20232;-67
2022/01/13 00:12:34;;;;;;;67.87;25.13;;;-0.60;99.90;;;;;;5074247;28;20145;-66
2022/01/13 00:15:20;;;;;;;61.63;23.47;;;-0.60;99.90;;;;;;5075291;28;20208;-67
2022/01/13 00:18:01;;;;;;;64.13;22.00;;;-0.60;99.90;;;;;;5075558;28;20121;-66
2022/01/13 00:20:47;;;;;;;59.53;22.70;;;-0.60;99.90;;;;;;5153894;27;20203;-66
2022/01/13 00:26:02;;;;;;;64.27;24.60;;;-0.60;99.90;;;;;;5180703;27;20151;-66
2022/01/13 00:28:30;;;;;;;68.30;23.77;;;-0.60;99.90;;;;;;5181039;27;20163;-67
2022/01/13 00:30:58;;;;;;;73.43;24.53;;;-0.60;99.90;;;;;;5200998;27;20131;-67
2022/01/13 00:33:26;;;;;;;76.17;24.90;;;-0.60;99.90;;;;;;5201871;27;20115;-67
2022/01/13 00:35:57;;;;;;;75.27;26.10;;;-0.70;99.90;;;;;;5181956;27;20384;-67
2022/01/13 00:38:25;;;;;;;84.50;26.97;;;-0.70;99.90;;;;;;5201047;27;20182;-67
2022/01/13 00:40:54;;;;;;;76.10;25.47;;;-0.60;99.90;;;;;;5182696;27;20401;-67
2022/01/13 00:43:21;;;;;;;79.20;26.93;;;-0.60;99.90;;;;;;5181537;27;20180;-67
2022/01/13 00:45:49;;;;;;;76.53;26.50;;;-0.60;99.90;;;;;;5181061;27;20178;-66
2022/01/13 00:48:17;;;;;;;90.73;27.83;;;-0.60;99.90;;;;;;5180899;27;20437;-67
2022/01/13 00:50:44;;;;;;;79.07;27.37;;;-0.60;99.90;;;;;;5180918;27;20202;-67
2022/01/13 00:53:12;;;;;;;79.43;27.13;;;-0.60;99.90;;;;;;5181543;27;20361;-67
2022/01/13 00:55:48;;;;;;;80.03;27.07;;;-0.60;99.90;;;;;;5200759;27;20379;-66
2022/01/13 00:58:17;;;;;;;67.87;24.13;;;-0.70;99.90;;;;;;5180897;27;20167;-67
2022/01/13 01:00:45;;;;;;;78.43;26.97;;;-0.70;99.90;;;;;;5200381;27;20174;-67
2022/01/13 01:03:15;;;;;;;72.23;25.40;;;-0.70;99.90;;;;;;5181328;27;20167;-67
2022/01/13 01:05:43;;;;;;;65.93;24.13;;;-0.60;99.90;;;;;;5181755;27;20139;-67
2022/01/13 01:08:11;;;;;;;66.10;22.87;;;-0.60;99.90;;;;;;5181689;27;20186;-67
2022/01/13 01:10:46;;;;;;;61.07;24.30;;;-0.60;99.90;;;;;;5200387;27;20154;-67
2022/01/13 01:13:16;;;;;;;70.43;24.00;;;-0.60;99.90;;;;;;5180694;27;20427;-67
2022/01/13 01:15:49;;;;;;;63.37;23.67;;;-0.60;99.90;;;;;;5182602;27;20151;-67
2022/01/13 01:19:04;;;;;;;66.13;22.13;;;-0.60;99.90;;;;;;5181100;27;20177;-67
2022/01/13 01:26:45;;;;;;;58.73;21.33;;;-0.60;99.90;;;;;;5200491;27;20135;-67
2022/01/13 01:29:40;;;;;;;60.43;20.63;;;-0.60;99.90;;;;;;5181537;27;20159;-67
2022/01/13 01:32:08;;;;;;;55.83;21.80;;;-0.60;99.90;;;;;;5181071;27;20585;-67
2022/01/13 01:37:30;;;;;;;60.73;20.47;;;-0.60;99.90;;;;;;5181117;27;20356;-67
2022/01/13 01:39:59;;;;;;;56.30;21.23;;;-0.50;99.90;;;;;;5200330;27;20325;-67
2022/01/13 01:42:28;;;;;;;55.97;19.50;;;-0.50;99.90;;;;;;5181425;27;20171;-67
2022/01/13 01:44:57;;;;;;;53.43;19.33;;;-0.50;99.90;;;;;;5180861;27;20562;-67
2022/01/13 01:47:28;;;;;;;55.33;20.07;;;-0.50;99.90;;;;;;5180374;27;20553;-67
2022/01/13 01:49:59;;;;;;;61.90;19.63;;;-0.50;99.90;;;;;;5181187;27;20336;-67
2022/01/13 01:52:27;;;;;;;53.53;19.00;;;-0.50;99.90;;;;;;5181498;27;20147;-67
2022/01/13 01:54:55;;;;;;;54.87;19.10;;;-0.50;99.90;;;;;;5199954;27;20160;-66
2022/01/13 01:57:32;;;;;;;55.97;19.03;;;-0.50;99.90;;;;;;5180036;27;20548;-67
2022/01/13 02:00:06;;;;;;;56.07;19.53;;;-0.50;99.90;;;;;;5199595;27;20457;-67
2022/01/13 02:02:33;;;;;;;57.87;19.93;;;-0.50;99.90;;;;;;5199709;27;20713;-66
2022/01/13 02:05:05;;;;;;;59.97;20.27;;;-0.50;99.90;;;;;;5181950;27;20202;-67
2022/01/13 02:07:32;;;;;;;66.60;20.97;;;-0.50;99.90;;;;;;5180602;27;20490;-67
2022/01/13 02:10:02;;;;;;;54.33;20.37;;;-0.50;99.90;;;;;;5181108;27;20400;-67
2022/01/13 02:12:43;;;;;;;63.10;20.90;;;-0.50;99.90;;;;;;5181520;27;20143;-67
2022/01/13 02:15:29;;;;;;;64.67;21.53;;;-0.40;99.90;;;;;;5180917;27;20366;-67
2022/01/13 02:17:57;;;;;;;62.70;21.50;;;-0.40;99.90;;;;;;5201124;27;20135;-67
2022/01/13 02:20:39;;;;;;;70.57;23.03;;;-0.40;99.90;;;;;;5181672;27;20161;-67
2022/01/13 02:23:07;;;;;;;63.60;20.73;;;-0.50;99.90;;;;;;5182545;27;20143;-67
2022/01/13 02:25:34;;;;;;;58.93;20.37;;;-0.40;99.90;;;;;;5201433;27;20338;-66
2022/01/13 02:28:18;;;;;;;70.53;21.73;;;-0.40;99.90;;;;;;5180132;27;20491;-76
2022/01/13 02:30:53;;;;;;;69.13;22.00;;;-0.40;99.90;;;;;;5182592;27;20134;-75
2022/01/13 02:33:21;;;;;;;68.90;22.33;;;-0.50;99.90;;;;;;5202999;27;20107;-66
2022/01/13 02:35:48;;;;;;;71.80;23.60;;;-0.50;99.90;;;;;;5182809;27;20482;-67
2022/01/13 02:38:16;;;;;;;66.03;21.63;;;-0.40;99.90;;;;;;5199286;27;20170;-67
2022/01/13 02:40:45;;;;;;;68.53;21.30;;;-0.40;99.90;;;;;;5183017;27;20420;-67
2022/01/13 02:43:13;;;;;;;67.10;21.90;;;-0.40;99.90;;;;;;5182008;27;20135;-67
2022/01/13 02:45:52;;;;;;;61.07;20.43;;;-0.40;99.90;;;;;;5202689;27;20367;-67
2022/01/13 02:48:39;;;;;;;67.93;21.40;;;-0.30;99.90;;;;;;5180567;27;20573;-67
2022/01/13 02:51:06;;;;;;;61.43;21.00;;;-0.30;99.90;;;;;;5182212;27;20142;-66
2022/01/13 02:53:34;;;;;;;62.70;19.67;;;-0.40;99.90;;;;;;5201731;27;20119;-67
2022/01/13 02:56:04;;;;;;;62.70;19.47;;;-0.40;99.90;;;;;;5201426;27;20126;-67
2022/01/13 02:58:34;;;;;;;56.77;19.73;;;-0.30;99.90;;;;;;5180761;27;20163;-67
2022/01/13 03:01:06;;;;;;;62.80;19.70;;;-0.30;99.90;;;;;;5182962;27;20130;-67
2022/01/13 03:03:36;;;;;;;71.90;21.63;;;-0.30;99.90;;;;;;5201454;27;20165;-67
2022/01/13 03:06:16;;;;;;;58.50;20.30;;;-0.30;99.90;;;;;;5201123;27;20115;-67
2022/01/13 03:08:50;;;;;;;66.50;20.80;;;-0.30;99.90;;;;;;5200071;27;20167;-67
2022/01/13 03:11:29;;;;;;;58.73;18.97;;;-0.40;99.90;;;;;;5182026;27;20150;-67
2022/01/13 03:13:57;;;;;;;55.00;18.37;;;-0.30;99.90;;;;;;5182542;27;20356;-67
2022/01/13 03:16:25;;;;;;;55.93;17.40;;;-0.30;99.90;;;;;;5181487;27;20147;-66
2022/01/13 03:18:52;;;;;;;58.27;17.77;;;-0.30;99.90;;;;;;5200816;27;20142;-67
2022/01/13 03:21:23;;;;;;;51.83;16.53;;;-0.40;99.90;;;;;;5182806;27;20345;-67
2022/01/13 03:23:53;;;;;;;54.67;18.03;;;-0.40;99.90;;;;;;5182259;27;20149;-67
2022/01/13 03:26:21;;;;;;;53.10;16.73;;;-0.40;99.90;;;;;;5180843;27;20158;-66
2022/01/13 03:29:14;;;;;;;51.87;17.63;;;-0.40;99.90;;;;;;5180045;27;20191;-67
2022/01/13 03:31:40;;;;;;;49.77;17.47;;;-0.40;99.90;;;;;;5200888;27;20136;-67
2022/01/13 03:34:08;;;;;;;53.17;18.57;;;-0.40;99.90;;;;;;5182606;27;20366;-67
2022/01/13 03:36:35;;;;;;;55.30;17.13;;;-0.30;99.90;;;;;;5181687;27;20182;-67
2022/01/13 03:39:05;;;;;;;53.33;16.23;;;-0.40;99.90;;;;;;5180664;27;20150;-67
2022/01/13 03:41:34;;;;;;;55.47;16.53;;;-0.40;99.90;;;;;;5181534;27;20186;-66
2022/01/13 03:44:08;;;;;;;45.70;16.17;;;-0.30;99.90;;;;;;5181689;27;20162;-67
2022/01/13 03:46:36;;;;;;;47.30;15.63;;;-0.30;99.90;;;;;;5181000;27;20187;-66
2022/01/13 03:49:07;;;;;;;36.67;13.97;;;-0.30;99.90;;;;;;5199459;27;20381;-66
2022/01/13 03:51:55;;;;;;;47.60;14.30;;;-0.30;99.90;;;;;;5183752;27;20158;-67
2022/01/13 03:54:31;;;;;;;40.20;14.37;;;-0.30;99.90;;;;;;5181488;27;20195;-66
2022/01/13 03:57:49;;;;;;;46.70;14.87;;;-0.30;99.90;;;;;;5182324;27;20142;-67
2022/01/13 04:00:43;;;;;;;40.93;13.60;;;-0.30;99.90;;;;;;5180819;27;20159;-67
2022/01/13 04:03:13;;;;;;;42.77;13.73;;;-0.30;99.90;;;;;;5181399;27;20387;-67
2022/01/13 04:06:24;;;;;;;42.93;13.97;;;-0.30;99.90;;;;;;5200881;27;20160;-67
2022/01/13 04:08:54;;;;;;;40.43;14.10;;;-0.30;99.90;;;;;;5180015;27;20165;-66
2022/01/13 04:11:25;;;;;;;43.93;13.93;;;-0.30;99.90;;;;;;5182903;27;20359;-66
2022/01/13 04:13:58;;;;;;;39.77;13.13;;;-0.30;99.90;;;;;;5180977;27;20191;-66
2022/01/13 04:16:28;;;;;;;41.13;13.13;;;-0.20;99.90;;;;;;5181964;27;20150;-67
2022/01/13 04:19:04;;;;;;;44.93;14.97;;;-0.20;99.90;;;;;;5182752;27;20148;-66
2022/01/13 04:21:37;;;;;;;49.47;14.47;;;-0.10;99.90;;;;;;5182737;27;20387;-66
2022/01/13 04:24:11;;;;;;;48.07;14.77;;;-0.10;99.90;;;;;;5180957;27;20143;-67
2022/01/13 04:26:45;;;;;;;41.20;14.63;;;0.00;99.90;;;;;;5181056;27;20151;-66
2022/01/13 04:31:42;;;;;;;43.37;14.43;;;0.00;99.90;;;;;;5180808;27;20151;-66
2022/01/13 04:34:10;;;;;;;42.53;13.97;;;0.00;99.90;;;;;;5200773;27;20123;-66
2022/01/13 04:36:38;;;;;;;48.50;15.70;;;0.00;99.90;;;;;;5181609;27;20148;-67
2022/01/13 04:39:10;;;;;;;44.37;15.70;;;0.10;99.90;;;;;;5180988;27;20134;-67
2022/01/13 04:41:43;;;;;;;43.27;15.33;;;0.10;99.90;;;;;;5180882;27;20150;-66
2022/01/13 04:44:17;;;;;;;46.73;15.10;;;0.10;99.90;;;;;;5181573;27;20196;-66
2022/01/13 04:46:46;;;;;;;43.20;14.80;;;0.10;99.90;;;;;;5181207;27;20193;-66
2022/01/13 04:49:14;;;;;;;48.80;14.60;;;0.10;99.90;;;;;;5180151;27;20218;-66
2022/01/13 04:51:42;;;;;;;39.97;13.90;;;0.10;99.90;;;;;;5180846;27;20512;-66
2022/01/13 04:54:12;;;;;;;43.87;14.83;;;0.10;99.90;;;;;;5181505;27;20147;-66
2022/01/13 04:56:53;;;;;;;40.27;14.57;;;0.10;99.90;;;;;;5200991;27;20124;-66
2022/01/13 04:59:20;;;;;;;45.40;15.03;;;0.20;99.90;;;;;;5199425;27;20207;-66
2022/01/13 05:01:47;;;;;;;38.07;13.60;;;0.10;99.90;;;;;;5201517;27;20458;-66
2022/01/13 05:04:15;;;;;;;40.20;14.73;;;0.20;99.90;;;;;;5200310;27;20163;-66
2022/01/13 05:06:42;;;;;;;44.37;15.27;;;0.20;99.90;;;;;;5181958;27;20155;-66
2022/01/13 05:09:30;;;;;;;36.67;14.03;;;0.20;99.90;;;;;;5183124;27;20514;-66
2022/01/13 05:11:59;;;;;;;41.23;14.00;;;0.20;99.90;;;;;;5182042;27;20406;-67
2022/01/13 05:14:26;;;;;;;41.13;14.47;;;0.20;99.90;;;;;;5181116;27;20170;-66
2022/01/13 05:17:07;;;;;;;41.83;13.73;;;0.20;99.90;;;;;;5181168;27;20425;-66
2022/01/13 05:19:41;;;;;;;40.57;14.03;;;0.20;99.90;;;;;;5180538;27;20231;-66
2022/01/13 05:24:38;;;;;;;38.13;13.43;;;0.20;99.90;;;;;;5182623;27;20138;-66
2022/01/13 05:27:06;;;;;;;35.37;13.70;;;0.20;99.90;;;;;;5181092;27;20482;-66
2022/01/13 05:29:33;;;;;;;32.43;12.37;;;0.20;99.90;;;;;;5181726;27;20229;-66
2022/01/13 05:32:04;;;;;;;37.77;12.53;;;0.20;99.90;;;;;;5181678;27;20173;-66
2022/01/13 05:34:31;;;;;;;33.27;12.40;;;0.20;99.90;;;;;;5199860;27;20162;-67
2022/01/13 05:37:13;;;;;;;31.13;12.00;;;0.20;99.90;;;;;;5181621;27;20150;-66
2022/01/13 05:39:41;;;;;;;35.60;12.30;;;0.20;99.90;;;;;;5200228;27;20465;-67
2022/01/13 05:42:08;;;;;;;23.97;9.67;;;0.20;99.90;;;;;;5180632;27;20489;-66
2022/01/13 05:44:38;;;;;;;28.70;11.07;;;0.20;99.90;;;;;;5180589;27;20195;-66
2022/01/13 05:47:08;;;;;;;27.50;10.57;;;0.20;99.90;;;;;;5181654;27;20226;-66
2022/01/13 05:49:40;;;;;;;25.00;10.33;;;0.30;99.90;;;;;;5181674;27;20150;-66
2022/01/13 05:52:12;;;;;;;25.70;10.53;;;0.20;99.90;;;;;;5179690;27;20143;-66
2022/01/13 05:54:41;;;;;;;26.83;10.50;;;0.20;99.90;;;;;;5201269;27;20159;-66
2022/01/13 05:57:08;;;;;;;26.00;10.23;;;0.20;99.90;;;;;;5181446;27;20143;-66
2022/01/13 05:59:36;;;;;;;22.80;9.97;;;0.20;99.90;;;;;;5201092;27;20542;-66
2022/01/13 06:02:07;;;;;;;24.73;11.13;;;0.30;99.90;;;;;;5180298;27;20151;-66
2022/01/13 06:04:34;;;;;;;29.37;11.13;;;0.30;99.90;;;;;;5181050;27;20156;-66
2022/01/13 06:07:02;;;;;;;26.93;11.30;;;0.30;99.90;;;;;;5181128;27;20153;-66
2022/01/13 06:09:29;;;;;;;32.73;11.37;;;0.30;99.90;;;;;;5181859;27;20153;-66
2022/01/13 06:12:02;;;;;;;27.37;11.30;;;0.30;99.90;;;;;;5199521;27;20469;-66
2022/01/13 06:14:29;;;;;;;28.37;11.50;;;0.30;99.90;;;;;;5180909;27;20150;-66
2022/01/13 06:16:57;;;;;;;26.77;10.50;;;0.30;99.90;;;;;;5180719;27;20202;-66
2022/01/13 06:19:24;;;;;;;24.33;11.00;;;0.40;99.90;;;;;;5180522;27;20150;-66
2022/01/13 06:22:00;;;;;;;28.87;11.50;;;0.40;99.90;;;;;;5199616;27;20126;-66
2022/01/13 06:24:37;;;;;;;29.10;10.97;;;0.40;99.90;;;;;;5181103;27;20146;-66
2022/01/13 06:27:04;;;;;;;26.23;10.87;;;0.40;99.90;;;;;;5182194;27;20210;-66
2022/01/13 06:29:32;;;;;;;28.97;10.90;;;0.40;99.90;;;;;;5199869;27;20145;-66
2022/01/13 06:31:59;;;;;;;28.97;11.30;;;0.40;99.90;;;;;;5179692;27;20502;-66
2022/01/13 06:34:26;;;;;;;25.67;11.27;;;0.50;99.90;;;;;;5180909;27;20548;-66
2022/01/13 06:36:53;;;;;;;28.80;11.40;;;0.50;99.90;;;;;;5181076;27;20501;-66
2022/01/13 06:39:21;;;;;;;27.10;11.17;;;0.50;99.90;;;;;;5181152;27;20155;-66
2022/01/13 06:41:48;;;;;;;27.80;10.90;;;0.50;99.90;;;;;;5199669;27;20154;-66
2022/01/13 06:44:16;;;;;;;26.33;10.50;;;0.50;99.90;;;;;;5181082;27;20135;-66
2022/01/13 06:46:43;;;;;;;28.23;11.97;;;0.50;99.90;;;;;;5199318;27;20154;-66
2022/01/13 06:49:10;;;;;;;27.67;12.07;;;0.50;99.90;;;;;;5180865;27;20143;-66
2022/01/13 06:51:38;;;;;;;23.77;10.73;;;0.50;99.90;;;;;;5180174;27;20162;-66
2022/01/13 06:54:05;;;;;;;21.80;10.40;;;0.50;99.90;;;;;;5200244;27;20472;-67
2022/01/13 06:56:32;;;;;;;27.80;11.73;;;0.60;99.90;;;;;;5181097;27;20162;-66
2022/01/13 06:58:59;;;;;;;24.03;10.97;;;0.60;99.90;;;;;;5180459;27;20148;-66
2022/01/13 07:01:29;;;;;;;23.53;10.37;;;0.60;99.90;;;;;;5180867;27;20576;-66
2022/01/13 07:03:59;;;;;;;25.23;10.97;;;0.70;99.90;;;;;;5200935;27;20341;-66
2022/01/13 07:06:30;;;;;;;25.07;11.93;;;0.70;99.90;;;;;;5181866;27;20478;-66
2022/01/13 07:08:57;;;;;;;22.83;10.83;;;0.70;99.90;;;;;;5181513;27;20187;-66
2022/01/13 07:11:24;;;;;;;26.50;12.00;;;0.80;99.90;;;;;;5181691;27;20183;-67
2022/01/13 07:13:52;;;;;;;24.77;12.07;;;0.80;99.90;;;;;;5181950;27;20185;-66
2022/01/13 07:16:21;;;;;;;23.37;10.37;;;0.80;99.90;;;;;;5182052;27;20155;-67
2022/01/13 07:18:48;;;;;;;21.33;9.50;;;0.80;99.90;;;;;;5201062;27;20340;-66
2022/01/13 07:21:18;;;;;;;21.57;10.27;;;0.80;99.90;;;;;;5182392;27;20396;-66
2022/01/13 07:23:46;;;;;;;27.20;10.87;;;0.80;99.90;;;;;;5180628;27;20150;-66
2022/01/13 07:26:13;;;;;;;25.33;10.83;;;0.80;99.90;;;;;;5164836;27;20177;-69
2022/01/13 07:28:40;;;;;;;25.43;10.97;;;0.80;99.90;;;;;;5181851;27;20187;-66
2022/01/13 07:31:08;;;;;;;26.67;10.70;;;0.80;99.90;;;;;;5181402;27;20151;-66
2022/01/13 07:33:35;;;;;;;25.47;11.17;;;0.80;99.90;;;;;;5180046;27;20147;-66
2022/01/13 07:36:05;;;;;;;23.07;10.70;;;0.90;99.90;;;;;;5182676;27;20405;-66
2022/01/13 07:38:32;;;;;;;21.70;10.10;;;0.80;99.90;;;;;;5183501;27;20402;-66
2022/01/13 07:40:59;;;;;;;26.57;11.33;;;0.90;99.90;;;;;;5181687;27;20493;-66
2022/01/13 07:43:27;;;;;;;27.07;11.90;;;0.90;99.90;;;;;;5180764;27;20214;-66
2022/01/13 07:45:54;;;;;;;25.30;11.77;;;0.90;99.90;;;;;;5181864;27;20193;-66
2022/01/13 07:48:22;;;;;;;26.80;11.27;;;0.90;99.90;;;;;;5183140;27;20159;-66
2022/01/13 07:50:53;;;;;;;26.37;12.43;;;0.90;99.90;;;;;;5094888;28;20200;-66
2022/01/13 07:53:20;;;;;;;26.60;11.90;;;1.00;99.90;;;;;;5077123;28;20148;-67
2022/01/13 07:55:49;;;;;;;29.97;12.20;;;1.00;99.90;;;;;;5078790;28;20137;-67
2022/01/13 07:58:16;;;;;;;26.80;11.63;;;1.00;99.90;;;;;;5060401;28;20439;-67
2022/01/13 08:00:43;;;;;;;27.67;11.93;;;1.00;99.90;;;;;;5094543;28;20487;-67
2022/01/13 08:03:11;;;;;;;29.53;12.57;;;1.00;99.90;;;;;;5076004;28;20148;-67
2022/01/13 08:05:38;;;;;;;30.53;12.57;;;1.00;99.90;;;;;;5076812;28;20149;-67
2022/01/13 08:08:05;;;;;;;27.47;12.37;;;1.10;99.90;;;;;;5093041;27;20519;-67
2022/01/13 08:10:33;;;;;;;31.83;13.00;;;1.10;99.90;;;;;;5183418;27;20158;-67
2022/01/13 08:13:00;;;;;;;30.90;12.33;;;1.10;99.90;;;;;;5180663;27;20207;-67
2022/01/13 08:15:28;;;;;;;28.53;12.93;;;1.10;99.90;;;;;;5181117;27;20174;-67
2022/01/13 08:20:43;;;;;;;30.10;13.67;;;1.10;99.90;;;;;;5181000;27;20162;-67
2022/01/13 08:23:11;;;;;;;33.10;13.50;;;1.20;99.90;;;;;;5180500;27;20154;-67
2022/01/13 08:25:39;;;;;;;36.47;14.37;;;1.20;99.90;;;;;;5181954;27;20139;-67
2022/01/13 08:28:06;;;;;;;32.17;13.80;;;1.10;99.90;;;;;;5181494;27;20174;-67
2022/01/13 08:30:40;;;;;;;32.73;14.10;;;1.20;99.90;;;;;;5181001;27;20139;-67
2022/01/13 08:33:07;;;;;;;32.97;13.37;;;1.20;99.90;;;;;;5180362;27;20241;-68
2022/01/13 08:35:35;;;;;;;32.10;13.77;;;1.20;99.90;;;;;;5180941;27;20157;-68
2022/01/13 08:38:08;;;;;;;34.40;14.73;;;1.30;99.90;;;;;;5181163;27;20162;-67
2022/01/13 08:40:38;;;;;;;39.93;14.73;;;1.30;99.90;;;;;;5181003;27;20135;-68
2022/01/13 08:43:05;;;;;;;36.23;15.00;;;1.30;99.90;;;;;;5199486;27;20351;-68
2022/01/13 08:45:33;;;;;;;35.07;14.30;;;1.30;99.90;;;;;;5182466;27;20546;-68
2022/01/13 08:48:06;;;;;;;36.07;14.27;;;1.30;99.90;;;;;;5179781;27;20205;-68
2022/01/13 08:50:40;;;;;;;36.33;14.43;;;1.30;99.90;;;;;;5181528;27;20152;-67
2022/01/13 08:53:11;;;;;;;37.50;15.80;;;1.40;99.90;;;;;;5182096;27;20155;-68
2022/01/13 08:55:38;;;;;;;39.93;15.37;;;1.30;99.90;;;;;;5180928;27;20182;-68
2022/01/13 08:58:05;;;;;;;36.17;14.37;;;1.30;99.90;;;;;;5199995;27;20178;-68
2022/01/13 09:00:36;;;;;;;38.80;15.53;;;1.30;99.90;;;;;;5181531;27;20187;-68
2022/01/13 09:03:08;;;;;;;41.43;15.90;;;1.30;99.90;;;;;;5181829;27;20139;-68
2022/01/13 09:05:39;;;;;;;38.17;15.20;;;1.30;99.90;;;;;;5199739;27;20234;-68
2022/01/13 09:08:09;;;;;;;33.43;14.40;;;1.30;99.90;;;;;;5181211;27;20147;-68
2022/01/13 09:10:42;;;;;;;42.83;16.33;;;1.40;99.90;;;;;;5180883;27;20154;-68
2022/01/13 09:13:11;;;;;;;39.60;16.00;;;1.30;99.90;;;;;;5182219;27;20429;-67
2022/01/13 09:15:44;;;;;;;35.97;14.57;;;1.30;99.90;;;;;;5179722;27;20151;-68
2022/01/13 09:18:19;;;;;;;39.13;15.60;;;1.30;99.90;;;;;;5181301;27;20173;-68
2022/01/13 09:20:48;;;;;;;35.47;14.77;;;1.30;99.90;;;;;;5181292;27;20251;-68
2022/01/13 09:23:15;;;;;;;43.10;15.40;;;1.40;99.90;;;;;;5182103;27;20159;-67
2022/01/13 09:25:42;;;;;;;42.47;16.17;;;1.40;99.90;;;;;;5179390;27;20162;-68
2022/01/13 09:28:10;;;;;;;43.37;15.60;;;1.40;99.90;;;;;;5180907;27;20198;-67
2022/01/13 09:30:37;;;;;;;39.50;16.30;;;1.40;99.90;;;;;;5180822;27;20199;-67
2022/01/13 09:33:05;;;;;;;42.87;15.90;;;1.40;99.90;;;;;;5180219;27;20158;-68
2022/01/13 09:35:33;;;;;;;46.50;17.13;;;1.40;99.90;;;;;;5198868;27;20143;-68
2022/01/13 09:38:01;;;;;;;43.07;16.47;;;1.40;99.90;;;;;;5181734;27;20147;-68
2022/01/13 09:40:31;;;;;;;38.90;15.63;;;1.40;99.90;;;;;;5182176;27;20175;-68
2022/01/13 09:43:01;;;;;;;40.57;16.87;;;1.50;99.90;;;;;;5199854;27;20158;-67
2022/01/13 09:45:32;;;;;;;45.93;16.53;;;1.50;99.90;;;;;;5178881;27;20195;-67
2022/01/13 09:47:59;;;;;;;44.53;17.07;;;1.50;99.90;;;;;;5180428;27;20167;-67
2022/01/13 09:50:32;;;;;;;46.23;16.33;;;1.50;99.90;;;;;;5200385;27;20342;-67
2022/01/13 09:53:00;;;;;;;49.73;18.00;;;1.60;99.90;;;;;;5180864;27;20370;-67
2022/01/13 09:55:36;;;;;;;41.47;16.73;;;1.60;99.90;;;;;;5198444;27;20123;-67
2022/01/13 09:58:10;;;;;;;47.13;17.00;;;1.60;99.90;;;;;;5181702;27;20532;-67
2022/01/13 10:00:39;;;;;;;44.93;17.43;;;1.60;99.90;;;;;;5201145;27;20130;-67
2022/01/13 10:03:23;;;;;;;51.80;18.23;;;1.70;99.90;;;;;;5181078;27;20367;-67
2022/01/13 10:05:58;;;;;;;45.03;17.13;;;1.70;99.90;;;;;;5181112;27;20210;-67
2022/01/13 10:12:09;;;;;;;40.23;14.80;;;1.70;99.90;;;;;;5076791;28;20180;-66
2022/01/13 10:17:30;;;;;;;38.73;14.53;;;1.80;99.90;;;;;;4997775;28;20169;-66
2022/01/13 10:20:11;;;;;;;40.40;15.50;;;1.80;99.90;;;;;;4997576;28;20162;-67
2022/01/13 10:22:38;;;;;;;43.57;16.10;;;1.80;99.90;;;;;;5013677;28;20478;-67
2022/01/13 10:25:30;;;;;;;39.93;15.37;;;1.80;99.90;;;;;;4998250;28;20145;-67
2022/01/13 10:28:19;;;;;;;40.03;14.60;;;1.80;99.90;;;;;;4997459;28;20489;-67
2022/01/13 10:30:50;;;;;;;39.23;14.87;;;1.80;99.90;;;;;;5014572;28;20168;-67
2022/01/13 10:33:20;;;;;;;40.90;15.63;;;1.80;99.90;;;;;;5014192;28;20149;-66
2022/01/13 10:35:50;;;;;;;41.47;15.00;;;1.80;99.90;;;;;;4998708;28;20150;-67
2022/01/13 10:38:19;;;;;;;40.97;15.33;;;1.80;99.90;;;;;;4998397;28;20151;-66
2022/01/13 10:40:48;;;;;;;42.70;16.03;;;1.80;99.90;;;;;;5016156;28;20162;-67
2022/01/13 10:43:22;;;;;;;42.97;15.97;;;1.80;99.90;;;;;;5015052;28;20161;-67
2022/01/13 10:45:54;;;;;;;39.70;15.67;;;1.90;99.90;;;;;;5016484;28;20126;-67
2022/01/13 10:48:30;;;;;;;42.80;15.13;;;1.90;99.90;;;;;;5040414;28;20656;-66
2022/01/13 10:51:04;;;;;;;38.80;15.13;;;1.90;99.90;;;;;;5078689;28;20650;-66
2022/01/13 10:53:42;;;;;;;40.47;15.07;;;2.00;99.90;;;;;;5102379;27;20135;-66
2022/01/13 10:56:14;;;;;;;38.57;14.70;;;2.00;99.90;;;;;;5182867;27;20143;-66
2022/01/13 10:58:49;;;;;;;34.70;14.10;;;2.00;99.90;;;;;;5182314;27;20162;-66
2022/01/13 11:01:32;;;;;;;40.10;14.83;;;2.00;99.90;;;;;;5184344;27;20485;-66
2022/01/13 11:04:14;;;;;;;36.93;13.97;;;2.00;99.90;;;;;;5181711;27;20153;-66
2022/01/13 11:06:41;;;;;;;37.80;14.40;;;2.10;99.90;;;;;;5182023;27;20151;-66
2022/01/13 11:09:16;;;;;;;35.57;14.00;;;2.00;99.90;;;;;;5181989;27;20174;-66
2022/01/13 11:11:46;;;;;;;36.70;13.97;;;2.10;99.90;;;;;;5201585;27;20414;-66
2022/01/13 11:14:24;;;;;;;36.67;14.30;;;2.00;99.90;;;;;;5183250;27;20147;-66
2022/01/13 11:16:51;;;;;;;41.30;14.97;;;2.00;99.90;;;;;;5181942;27;20173;-69
2022/01/13 11:19:20;;;;;;;38.30;14.30;;;2.10;99.90;;;;;;5201112;27;20182;-66
2022/01/13 11:21:48;;;;;;;36.60;14.27;;;2.10;99.90;;;;;;5181567;27;20472;-66
2022/01/13 11:24:17;;;;;;;33.50;13.33;;;2.10;99.90;;;;;;5181473;27;20163;-65
2022/01/13 11:26:46;;;;;;;34.67;13.40;;;2.20;99.90;;;;;;5183924;27;20235;-66
2022/01/13 11:29:17;;;;;;;35.90;13.93;;;2.20;99.90;;;;;;5200623;27;20478;-66
2022/01/13 11:31:45;;;;;;;36.83;13.00;;;2.20;99.90;;;;;;5181500;27;20151;-65
2022/01/13 11:34:16;;;;;;;32.73;13.00;;;2.20;99.90;;;;;;5181648;27;20140;-66
2022/01/13 11:36:44;;;;;;;33.37;12.80;;;2.20;99.90;;;;;;5182781;27;20516;-66
2022/01/13 11:39:11;;;;;;;32.00;13.40;;;2.20;99.90;;;;;;5181606;27;20549;-66
2022/01/13 11:42:04;;;;;;;39.00;13.60;;;2.20;99.90;;;;;;5183063;27;20459;-65
2022/01/13 11:44:33;;;;;;;33.13;12.50;;;2.30;99.90;;;;;;5182114;27;20143;-66
2022/01/13 11:47:07;;;;;;;32.27;12.87;;;2.30;99.90;;;;;;5181415;27;20216;-66
2022/01/13 11:49:44;;;;;;;33.27;12.20;;;2.30;99.90;;;;;;5182004;27;20427;-65
2022/01/13 11:52:26;;;;;;;31.37;12.70;;;2.30;99.90;;;;;;5201052;27;20111;-66
2022/01/13 11:54:53;;;;;;;28.83;12.27;;;2.40;99.90;;;;;;5200591;27;20107;-66
2022/01/13 11:57:40;;;;;;;30.60;12.07;;;2.40;99.90;;;;;;5181521;27;20194;-66
2022/01/13 12:00:07;;;;;;;31.27;12.97;;;2.40;99.90;;;;;;5181918;27;20169;-66
2022/01/13 12:02:44;;;;;;;30.17;12.57;;;2.40;99.90;;;;;;5200517;27;20131;-66
2022/01/13 12:05:19;;;;;;;28.50;11.40;;;2.50;99.90;;;;;;5200598;27;20156;-66
2022/01/13 12:07:58;;;;;;;33.13;12.87;;;2.50;99.90;;;;;;5181309;27;20540;-66
2022/01/13 12:10:34;;;;;;;29.57;12.00;;;2.50;99.90;;;;;;5200335;27;20118;-65
2022/01/13 12:13:33;;;;;;;31.17;13.00;;;2.50;99.90;;;;;;5181199;27;20146;-66
2022/01/13 12:16:01;;;;;;;30.73;12.10;;;2.50;99.90;;;;;;5180942;27;20189;-66
2022/01/13 12:18:53;;;;;;;28.57;11.80;;;2.50;99.90;;;;;;5181370;27;20171;-66
2022/01/13 12:21:26;;;;;;;30.00;12.50;;;2.60;99.90;;;;;;5180547;27;20174;-66
2022/01/13 12:23:56;;;;;;;28.83;11.60;;;2.60;99.90;;;;;;5181127;27;20147;-66
2022/01/13 12:26:32;;;;;;;27.33;12.10;;;2.60;99.90;;;;;;5200967;27;20170;-65
2022/01/13 12:29:18;;;;;;;30.03;13.07;;;2.60;99.90;;;;;;5180969;27;20197;-65
2022/01/13 12:31:57;;;;;;;34.93;12.53;;;2.60;99.90;;;;;;5181890;27;20143;-65
2022/01/13 12:34:33;;;;;;;33.90;13.10;;;2.60;99.90;;;;;;5181646;27;20466;-66
2022/01/13 12:37:22;;;;;;;30.17;12.57;;;2.60;99.90;;;;;;5180844;27;20159;-66
2022/01/13 12:39:56;;;;;;;25.37;11.10;;;2.60;99.90;;;;;;5200543;27;20138;-66
2022/01/13 12:42:37;;;;;;;30.03;11.90;;;2.60;99.90;;;;;;5199872;27;20167;-65
2022/01/13 12:48:09;;;;;;;27.33;11.63;;;2.60;99.90;;;;;;5180971;27;20155;-65
2022/01/13 12:50:42;;;;;;;29.20;12.33;;;2.70;99.90;;;;;;5180526;27;20190;-65
2022/01/13 12:53:23;;;;;;;24.77;11.33;;;2.70;99.90;;;;;;5181106;27;20178;-65
2022/01/13 12:56:04;;;;;;;25.70;11.50;;;2.70;99.90;;;;;;5202402;27;20469;-65
2022/01/13 12:58:37;;;;;;;27.87;11.63;;;2.70;99.90;;;;;;5200287;27;20139;-66
2022/01/13 13:01:10;;;;;;;27.23;11.60;;;2.70;99.90;;;;;;5180387;27;20146;-65
2022/01/13 13:03:38;;;;;;;27.37;11.50;;;2.70;99.90;;;;;;5180430;27;20154;-65
2022/01/13 13:06:16;;;;;;;28.57;11.53;;;2.70;99.90;;;;;;5180528;27;20139;-65
2022/01/13 13:08:46;;;;;;;27.63;11.57;;;2.70;99.90;;;;;;5181980;27;20151;-66
2022/01/13 13:11:13;;;;;;;30.10;12.53;;;2.70;99.90;;;;;;5181941;27;20159;-65
2022/01/13 13:13:51;;;;;;;30.63;12.37;;;2.80;99.90;;;;;;5200288;27;20171;-66
2022/01/13 13:16:18;;;;;;;29.43;12.40;;;2.80;99.90;;;;;;5181261;27;20150;-66
2022/01/13 13:18:47;;;;;;;28.03;12.07;;;2.70;99.90;;;;;;5163139;27;20148;-65
2022/01/13 13:21:14;;;;;;;27.60;12.13;;;2.80;99.90;;;;;;5181968;27;20445;-66
2022/01/13 13:23:43;;;;;;;31.23;12.40;;;2.80;99.90;;;;;;5180356;27;20389;-65